Bear Butte, South Dakota
Current Conditions -  °F | °C
As of 6:58 PM on Friday 19 Dec 2014 (Local Time) from KRCA Reporting Station
Clear Clear  
Wind Chill: 27°   Ceiling: Unl
Heat Index: 32°   Visibility: 10mi
Dew Point: 24°   Wind: 5mph
Humidity: 71%   Direction: 230°SW
Pressure: 29.92"   Gusts: NA
Location:  44.4145°N, 103.17°W
Report Text: KRCA 200158Z AUTO 23004KT 10SM CLR 00/M05 A2992 RMK AO2 SLP167 T00001047 $
Loading
Personal Weather Stations






























Interactive Weather Map New forecast layout! Learn more

10-Day Weather Forecast

Advertisements
Track Severe Weather on mobile